createdAt,value
2022-11-12T00:04:14.038Z,8.97
2022-11-12T00:09:36.209Z,8.94
2022-11-12T00:14:58.512Z,8.93
2022-11-12T00:20:21.950Z,8.88
2022-11-12T00:25:44.599Z,8.86
2022-11-12T00:31:06.760Z,8.85
2022-11-12T00:36:30.085Z,8.80
2022-11-12T00:41:52.797Z,8.74
2022-11-12T00:47:16.291Z,8.73
2022-11-12T00:52:38.452Z,8.72
2022-11-12T00:58:00.668Z,8.69
2022-11-12T01:03:22.990Z,8.67
2022-11-12T01:08:48.581Z,8.66
2022-11-12T01:14:24.982Z,8.65
2022-11-12T01:19:47.658Z,8.60
2022-11-12T01:25:09.916Z,8.58
2022-11-12T01:30:32.626Z,8.56
2022-11-12T01:35:55.446Z,8.54
2022-11-12T01:41:34.702Z,8.52
2022-11-12T01:47:01.769Z,8.52
2022-11-12T01:52:48.453Z,8.53
2022-11-12T01:58:21.482Z,8.52
2022-11-12T02:03:44.324Z,8.52
2022-11-12T02:09:08.332Z,8.54
2022-11-12T02:14:31.456Z,8.53
2022-11-12T02:19:55.245Z,8.52
2022-11-12T02:25:22.755Z,8.50
2022-11-12T02:31:00.899Z,8.50
2022-11-12T02:36:23.199Z,8.49
2022-11-12T02:41:45.531Z,8.50
2022-11-12T02:47:07.692Z,8.56
2022-11-12T02:52:30.301Z,8.56
2022-11-12T02:57:53.141Z,8.55
2022-11-12T03:03:15.480Z,8.57
2022-11-12T03:08:37.841Z,8.60
2022-11-12T03:14:00.907Z,8.62
2022-11-12T03:19:23.083Z,8.62
2022-11-12T03:24:45.269Z,8.61
2022-11-12T03:30:07.960Z,8.66
2022-11-12T03:35:30.219Z,8.71
2022-11-12T03:40:52.961Z,8.71
2022-11-12T03:46:15.366Z,8.69
2022-11-12T03:51:38.111Z,8.69
2022-11-12T03:57:00.293Z,8.67
2022-11-12T04:02:23.137Z,8.67
2022-11-12T04:07:59.083Z,8.67
2022-11-12T04:13:31.335Z,8.82
2022-11-12T04:19:13.081Z,8.74
2022-11-12T04:24:57.726Z,8.74
2022-11-12T04:30:20.692Z,8.71
2022-11-12T04:35:44.013Z,8.72
2022-11-12T04:41:24.938Z,8.71
2022-11-12T04:46:47.101Z,8.74
2022-11-12T04:52:09.264Z,8.74
2022-11-12T04:57:31.681Z,8.73
2022-11-12T05:02:55.603Z,8.73
2022-11-12T05:08:21.265Z,8.71
2022-11-12T05:13:43.930Z,8.70
2022-11-12T05:19:06.184Z,8.71
2022-11-12T05:24:41.475Z,8.70
2022-11-12T05:29:52.558Z,8.72
2022-11-12T05:35:14.873Z,8.71
2022-11-12T05:40:37.032Z,8.70
2022-11-12T05:46:00.806Z,8.73
2022-11-12T05:51:23.328Z,8.74
2022-11-12T05:56:46.095Z,8.77
2022-11-12T06:02:08.308Z,8.79
2022-11-12T06:07:30.521Z,8.80
2022-11-12T06:12:52.672Z,8.83
2022-11-12T06:18:14.941Z,8.85
2022-11-12T06:23:37.123Z,8.87
2022-11-12T06:28:59.851Z,8.89
2022-11-12T06:34:22.010Z,8.94
2022-11-12T06:39:44.201Z,8.97
2022-11-12T06:45:06.460Z,9.00
2022-11-12T06:50:28.834Z,9.04
2022-11-12T06:55:50.993Z,9.07
2022-11-12T07:01:21.930Z,9.08
2022-11-12T07:06:46.079Z,9.12
2022-11-12T07:12:08.874Z,9.13
2022-11-12T07:17:31.076Z,9.16
2022-11-12T07:22:53.272Z,9.22
2022-11-12T07:28:15.868Z,9.25
2022-11-12T07:33:38.818Z,9.30
2022-11-12T07:39:03.706Z,9.35
2022-11-12T07:44:26.523Z,9.38
2022-11-12T07:49:48.770Z,9.43
2022-11-12T07:55:11.451Z,9.46
2022-11-12T08:00:34.139Z,9.50
2022-11-12T08:05:57.354Z,9.52
2022-11-12T08:11:21.927Z,9.53
2022-11-12T08:16:44.505Z,9.52
2022-11-12T08:22:07.224Z,9.55
2022-11-12T08:27:30.027Z,9.52
2022-11-12T08:32:52.194Z,9.52
2022-11-12T08:38:19.513Z,9.60
2022-11-12T08:43:41.921Z,9.63
2022-11-12T08:49:04.085Z,9.65
2022-11-12T08:54:26.264Z,9.74
2022-11-12T08:59:48.464Z,9.83
2022-11-12T09:05:10.832Z,9.88
2022-11-12T09:10:34.156Z,9.92
2022-11-12T09:15:57.811Z,9.97
2022-11-12T09:21:25.091Z,10.05
2022-11-12T09:26:49.078Z,10.10
2022-11-12T09:32:11.339Z,10.17
2022-11-12T09:37:34.509Z,10.24
2022-11-12T09:42:58.688Z,10.29
2022-11-12T09:48:29.428Z,10.35
2022-11-12T09:54:05.399Z,10.40
2022-11-12T09:59:30.960Z,10.46
2022-11-12T10:05:03.482Z,10.43
2022-11-12T10:10:49.296Z,10.54
2022-11-12T10:16:44.109Z,10.47
2022-11-12T10:22:14.112Z,10.48
2022-11-12T10:27:44.532Z,10.50
2022-11-12T10:33:07.407Z,10.41
2022-11-12T10:38:33.407Z,10.43
2022-11-12T10:43:59.144Z,10.50
2022-11-12T10:49:31.775Z,10.47
2022-11-12T10:54:57.057Z,10.53
2022-11-12T11:00:32.135Z,10.63
2022-11-12T11:06:12.888Z,10.65
2022-11-12T11:11:56.740Z,10.79
2022-11-12T11:17:23.574Z,10.67
2022-11-12T11:23:02.694Z,10.63
2022-11-12T11:28:48.132Z,10.67
2022-11-12T11:34:18.355Z,10.74
2022-11-12T11:39:54.079Z,10.82
2022-11-12T11:45:32.837Z,10.92
2022-11-12T11:51:02.439Z,10.96
2022-11-12T11:56:38.522Z,11.00
2022-11-12T12:02:33.508Z,11.15
2022-11-12T12:08:09.222Z,11.15
2022-11-12T12:13:51.323Z,11.27
2022-11-12T12:19:36.481Z,11.42
2022-11-12T12:25:06.721Z,11.33
2022-11-12T12:30:50.623Z,11.39
2022-11-12T12:36:43.983Z,11.41
2022-11-12T12:47:55.811Z,11.56
2022-11-12T12:53:37.255Z,11.37
2022-11-12T12:59:07.310Z,11.31
2022-11-12T13:04:23.260Z,11.26
2022-11-12T13:09:45.889Z,11.24
2022-11-12T13:15:27.392Z,11.20
2022-11-12T13:21:12.975Z,11.17
2022-11-12T13:26:59.551Z,11.15
2022-11-12T13:32:49.123Z,11.12
2022-11-12T13:38:23.847Z,11.08
2022-11-12T13:43:55.192Z,11.05
2022-11-12T13:49:25.968Z,11.06
2022-11-12T13:54:57.315Z,11.06
2022-11-12T14:00:39.170Z,11.08
2022-11-12T14:06:05.718Z,11.10
2022-11-12T14:11:56.831Z,11.09
2022-11-12T14:17:51.037Z,11.09
2022-11-12T14:23:24.896Z,11.04
2022-11-12T14:28:50.076Z,11.02
2022-11-12T14:34:37.672Z,10.99
2022-11-12T14:40:00.662Z,10.95
2022-11-12T14:45:34.142Z,10.87
2022-11-12T14:50:54.840Z,10.80
2022-11-12T14:56:21.244Z,10.73
2022-11-12T15:02:29.438Z,10.68
2022-11-12T15:08:04.361Z,10.65
2022-11-12T15:13:47.514Z,10.72
2022-11-12T15:19:30.969Z,10.55
2022-11-12T15:24:55.276Z,10.54
2022-11-12T15:30:32.578Z,10.51
2022-11-12T15:35:58.395Z,10.49
2022-11-12T15:41:30.084Z,10.44
2022-11-12T15:46:52.335Z,10.44
2022-11-12T15:52:14.529Z,10.45
2022-11-12T15:57:40.901Z,10.43
2022-11-12T16:03:18.751Z,10.42
2022-11-12T16:08:40.915Z,10.42
2022-11-12T16:14:03.564Z,10.39
2022-11-12T16:19:31.896Z,10.38
2022-11-12T16:24:55.205Z,10.39
2022-11-12T16:30:24.857Z,10.38
2022-11-12T16:35:48.607Z,10.36
2022-11-12T16:41:11.406Z,10.35
2022-11-12T16:46:41.170Z,10.34
2022-11-12T16:51:59.305Z,10.31
2022-11-12T16:57:23.511Z,10.29
2022-11-12T17:02:49.508Z,10.27
2022-11-12T17:08:11.982Z,10.27
2022-11-12T17:13:34.744Z,10.25
2022-11-12T17:18:58.695Z,10.22
2022-11-12T17:24:21.957Z,10.21
2022-11-12T17:29:44.204Z,10.21
2022-11-12T17:35:06.802Z,10.21
2022-11-12T17:40:29.337Z,10.18
2022-11-12T17:45:58.667Z,10.16
2022-11-12T17:51:27.583Z,10.14
2022-11-12T17:56:49.817Z,10.13
2022-11-12T18:02:12.605Z,10.12
2022-11-12T18:07:35.987Z,10.11
2022-11-12T18:12:59.348Z,10.09
2022-11-12T18:18:21.983Z,10.07
2022-11-12T18:23:45.055Z,10.05
2022-11-12T18:29:12.861Z,10.03
2022-11-12T18:34:35.050Z,10.01
2022-11-12T18:39:57.263Z,10.00
2022-11-12T18:45:20.300Z,9.97
2022-11-12T18:50:43.071Z,9.94
2022-11-12T18:56:08.550Z,9.94
2022-11-12T19:01:33.553Z,9.92
2022-11-12T19:06:56.111Z,9.90
2022-11-12T19:12:18.516Z,9.85
2022-11-12T19:17:41.217Z,9.81
2022-11-12T19:23:04.101Z,9.78
2022-11-12T19:28:27.498Z,9.77
2022-11-12T19:33:51.610Z,9.74
2022-11-12T19:39:15.073Z,9.70
2022-11-12T19:44:37.812Z,9.76
2022-11-12T19:50:00.408Z,9.63
2022-11-12T19:55:23.480Z,9.57
2022-11-12T20:00:46.912Z,9.52
2022-11-12T20:06:15.265Z,9.50
2022-11-12T20:11:37.442Z,9.47
2022-11-12T20:16:59.712Z,9.44
2022-11-12T20:22:22.091Z,9.43
2022-11-12T20:27:44.769Z,9.43
2022-11-12T20:33:07.013Z,9.42
2022-11-12T20:38:30.746Z,9.38
2022-11-12T20:43:53.210Z,9.37
2022-11-12T20:49:15.865Z,9.34
2022-11-12T20:54:38.195Z,9.33
2022-11-12T21:00:00.389Z,9.31
2022-11-12T21:05:22.812Z,9.30
2022-11-12T21:10:45.049Z,9.30
2022-11-12T21:16:07.499Z,9.28
2022-11-12T21:21:33.941Z,9.29
2022-11-12T21:26:56.399Z,9.28
2022-11-12T21:32:18.676Z,9.29
2022-11-12T21:37:41.523Z,9.28
2022-11-12T21:43:03.776Z,9.30
2022-11-12T21:48:26.556Z,9.31
2022-11-12T21:53:49.085Z,9.30
2022-11-12T21:59:12.401Z,9.28
2022-11-12T22:04:34.587Z,9.28
2022-11-12T22:09:57.265Z,9.26
2022-11-12T22:15:24.157Z,9.26
2022-11-12T22:20:43.543Z,9.26
2022-11-12T22:26:07.312Z,9.26
2022-11-12T22:31:33.810Z,9.29
2022-11-12T22:36:56.152Z,9.28
2022-11-12T22:42:18.342Z,9.29
2022-11-12T22:47:40.556Z,9.27
2022-11-12T22:53:03.869Z,9.25
2022-11-12T22:58:26.406Z,9.24
2022-11-12T23:03:50.097Z,9.22
2022-11-12T23:09:13.020Z,9.21
2022-11-12T23:14:35.286Z,9.17
2022-11-12T23:19:58.048Z,9.18
2022-11-12T23:25:21.191Z,9.19
2022-11-12T23:30:43.655Z,9.17
2022-11-12T23:36:12.790Z,9.18
2022-11-12T23:41:38.523Z,9.17
2022-11-12T23:47:00.747Z,9.18
2022-11-12T23:52:22.989Z,9.16
2022-11-12T23:57:45.177Z,9.17
